sensor_id;sensor_type;location;lat;lon;timestamp;P1;durP1;ratioP1;P2;durP2;ratioP2
23282;SDS011;11810;51.178;3.878;2023-07-24T00:01:33;8.55;;;2.42;;
23282;SDS011;11810;51.178;3.878;2023-07-24T00:03:59;4.53;;;2.28;;
23282;SDS011;11810;51.178;3.878;2023-07-24T00:06:25;3.78;;;2.40;;
23282;SDS011;11810;51.178;3.878;2023-07-24T00:08:50;3.40;;;2.53;;
23282;SDS011;11810;51.178;3.878;2023-07-24T00:11:16;5.57;;;2.42;;
23282;SDS011;11810;51.178;3.878;2023-07-24T00:13:42;3.67;;;2.65;;
23282;SDS011;11810;51.178;3.878;2023-07-24T00:16:09;3.08;;;2.53;;
23282;SDS011;11810;51.178;3.878;2023-07-24T00:18:35;4.05;;;2.97;;
23282;SDS011;11810;51.178;3.878;2023-07-24T00:21:01;5.32;;;2.70;;
23282;SDS011;11810;51.178;3.878;2023-07-24T00:23:27;4.68;;;2.75;;
23282;SDS011;11810;51.178;3.878;2023-07-24T00:25:53;7.65;;;3.03;;
23282;SDS011;11810;51.178;3.878;2023-07-24T00:28:19;4.28;;;3.08;;
23282;SDS011;11810;51.178;3.878;2023-07-24T00:30:45;4.72;;;3.00;;
23282;SDS011;11810;51.178;3.878;2023-07-24T00:33:11;5.13;;;3.20;;
23282;SDS011;11810;51.178;3.878;2023-07-24T00:35:37;8.25;;;3.22;;
23282;SDS011;11810;51.178;3.878;2023-07-24T00:38:03;4.75;;;3.28;;
23282;SDS011;11810;51.178;3.878;2023-07-24T00:40:29;8.05;;;3.90;;
23282;SDS011;11810;51.178;3.878;2023-07-24T00:42:55;6.10;;;3.30;;
23282;SDS011;11810;51.178;3.878;2023-07-24T00:45:21;4.78;;;3.50;;
23282;SDS011;11810;51.178;3.878;2023-07-24T00:47:48;9.93;;;3.70;;
23282;SDS011;11810;51.178;3.878;2023-07-24T00:50:14;5.25;;;3.40;;
23282;SDS011;11810;51.178;3.878;2023-07-24T00:52:40;5.00;;;3.55;;
23282;SDS011;11810;51.178;3.878;2023-07-24T00:55:07;7.25;;;3.28;;
23282;SDS011;11810;51.178;3.878;2023-07-24T00:57:35;4.32;;;3.58;;
23282;SDS011;11810;51.178;3.878;2023-07-24T01:00:02;4.80;;;3.60;;
23282;SDS011;11810;51.178;3.878;2023-07-24T01:02:29;5.07;;;3.47;;
23282;SDS011;11810;51.178;3.878;2023-07-24T01:04:56;11.23;;;3.88;;
23282;SDS011;11810;51.178;3.878;2023-07-24T01:07:22;5.60;;;3.30;;
23282;SDS011;11810;51.178;3.878;2023-07-24T01:09:48;6.25;;;3.72;;
23282;SDS011;11810;51.178;3.878;2023-07-24T01:12:23;7.25;;;3.13;;
23282;SDS011;11810;51.178;3.878;2023-07-24T01:15:09;4.88;;;3.60;;
23282;SDS011;11810;51.178;3.878;2023-07-24T01:17:45;5.60;;;3.43;;
23282;SDS011;11810;51.178;3.878;2023-07-24T01:20:15;5.00;;;3.75;;
23282;SDS011;11810;51.178;3.878;2023-07-24T01:26:13;6.05;;;4.70;;
23282;SDS011;11810;51.178;3.878;2023-07-24T01:28:32;7.13;;;4.68;;
23282;SDS011;11810;51.178;3.878;2023-07-24T01:30:57;5.15;;;4.60;;
23282;SDS011;11810;51.178;3.878;2023-07-24T01:33:23;6.65;;;4.50;;
23282;SDS011;11810;51.178;3.878;2023-07-24T01:35:51;6.93;;;4.43;;
23282;SDS011;11810;51.178;3.878;2023-07-24T01:38:26;7.97;;;5.50;;
23282;SDS011;11810;51.178;3.878;2023-07-24T01:40:53;12.40;;;4.75;;
23282;SDS011;11810;51.178;3.878;2023-07-24T01:43:19;10.00;;;5.60;;
23282;SDS011;11810;51.178;3.878;2023-07-24T01:45:45;6.90;;;5.15;;
23282;SDS011;11810;51.178;3.878;2023-07-24T01:48:11;7.97;;;4.55;;
23282;SDS011;11810;51.178;3.878;2023-07-24T01:50:37;5.35;;;4.38;;
23282;SDS011;11810;51.178;3.878;2023-07-24T01:53:03;6.88;;;3.95;;
23282;SDS011;11810;51.178;3.878;2023-07-24T01:55:29;6.30;;;4.20;;
23282;SDS011;11810;51.178;3.878;2023-07-24T01:57:55;8.05;;;4.78;;
23282;SDS011;11810;51.178;3.878;2023-07-24T02:00:22;8.80;;;5.15;;
23282;SDS011;11810;51.178;3.878;2023-07-24T02:02:48;9.48;;;6.13;;
23282;SDS011;11810;51.178;3.878;2023-07-24T02:05:14;10.27;;;5.65;;
23282;SDS011;11810;51.178;3.878;2023-07-24T02:07:40;7.75;;;6.13;;
23282;SDS011;11810;51.178;3.878;2023-07-24T02:10:06;8.35;;;6.80;;
23282;SDS011;11810;51.178;3.878;2023-07-24T02:12:32;8.05;;;5.80;;
23282;SDS011;11810;51.178;3.878;2023-07-24T02:14:58;8.40;;;6.40;;
23282;SDS011;11810;51.178;3.878;2023-07-24T02:17:24;10.75;;;7.03;;
23282;SDS011;11810;51.178;3.878;2023-07-24T02:19:50;13.73;;;7.20;;
23282;SDS011;11810;51.178;3.878;2023-07-24T02:22:16;9.40;;;6.13;;
23282;SDS011;11810;51.178;3.878;2023-07-24T02:24:42;9.05;;;6.57;;
23282;SDS011;11810;51.178;3.878;2023-07-24T02:27:11;10.40;;;5.43;;
23282;SDS011;11810;51.178;3.878;2023-07-24T02:29:39;8.43;;;5.43;;
23282;SDS011;11810;51.178;3.878;2023-07-24T02:32:05;11.23;;;5.25;;
23282;SDS011;11810;51.178;3.878;2023-07-24T02:34:31;10.23;;;4.97;;
23282;SDS011;11810;51.178;3.878;2023-07-24T02:36:57;7.57;;;4.95;;
23282;SDS011;11810;51.178;3.878;2023-07-24T02:39:23;7.47;;;4.70;;
23282;SDS011;11810;51.178;3.878;2023-07-24T02:41:49;8.90;;;5.32;;
23282;SDS011;11810;51.178;3.878;2023-07-24T02:44:15;9.18;;;4.45;;
23282;SDS011;11810;51.178;3.878;2023-07-24T02:46:41;7.85;;;4.38;;
23282;SDS011;11810;51.178;3.878;2023-07-24T02:49:07;9.32;;;4.60;;
23282;SDS011;11810;51.178;3.878;2023-07-24T02:51:33;8.80;;;4.95;;
23282;SDS011;11810;51.178;3.878;2023-07-24T02:53:59;6.75;;;4.20;;
23282;SDS011;11810;51.178;3.878;2023-07-24T02:56:24;9.85;;;4.50;;
23282;SDS011;11810;51.178;3.878;2023-07-24T02:58:50;5.82;;;3.92;;
23282;SDS011;11810;51.178;3.878;2023-07-24T03:01:16;5.68;;;4.10;;
23282;SDS011;11810;51.178;3.878;2023-07-24T03:03:42;8.07;;;4.40;;
23282;SDS011;11810;51.178;3.878;2023-07-24T03:06:08;8.63;;;4.80;;
23282;SDS011;11810;51.178;3.878;2023-07-24T03:08:34;6.63;;;3.85;;
23282;SDS011;11810;51.178;3.878;2023-07-24T03:11:00;8.27;;;5.25;;
23282;SDS011;11810;51.178;3.878;2023-07-24T03:13:29;8.38;;;4.38;;
23282;SDS011;11810;51.178;3.878;2023-07-24T03:15:56;8.90;;;6.07;;
23282;SDS011;11810;51.178;3.878;2023-07-24T03:18:23;7.00;;;5.20;;
23282;SDS011;11810;51.178;3.878;2023-07-24T03:20:49;8.57;;;5.90;;
23282;SDS011;11810;51.178;3.878;2023-07-24T03:23:15;8.27;;;6.90;;
23282;SDS011;11810;51.178;3.878;2023-07-24T03:25:42;8.52;;;6.85;;
23282;SDS011;11810;51.178;3.878;2023-07-24T03:28:09;13.43;;;7.18;;
23282;SDS011;11810;51.178;3.878;2023-07-24T03:30:35;17.10;;;8.15;;
23282;SDS011;11810;51.178;3.878;2023-07-24T03:33:01;9.50;;;7.97;;
23282;SDS011;11810;51.178;3.878;2023-07-24T03:35:27;14.38;;;7.78;;
23282;SDS011;11810;51.178;3.878;2023-07-24T03:37:53;10.82;;;7.15;;
23282;SDS011;11810;51.178;3.878;2023-07-24T03:40:19;12.10;;;7.28;;
23282;SDS011;11810;51.178;3.878;2023-07-24T03:42:45;10.77;;;7.20;;
23282;SDS011;11810;51.178;3.878;2023-07-24T03:45:11;10.70;;;7.07;;
23282;SDS011;11810;51.178;3.878;2023-07-24T03:47:37;9.40;;;6.30;;
23282;SDS011;11810;51.178;3.878;2023-07-24T03:50:03;12.70;;;6.88;;
23282;SDS011;11810;51.178;3.878;2023-07-24T03:52:29;11.90;;;6.57;;
23282;SDS011;11810;51.178;3.878;2023-07-24T03:54:55;9.48;;;6.47;;
23282;SDS011;11810;51.178;3.878;2023-07-24T03:57:21;11.52;;;6.38;;
23282;SDS011;11810;51.178;3.878;2023-07-24T03:59:46;8.48;;;5.40;;
23282;SDS011;11810;51.178;3.878;2023-07-24T04:02:12;14.15;;;6.20;;
23282;SDS011;11810;51.178;3.878;2023-07-24T04:04:38;9.82;;;4.88;;
23282;SDS011;11810;51.178;3.878;2023-07-24T04:07:04;10.85;;;5.93;;
23282;SDS011;11810;51.178;3.878;2023-07-24T04:09:31;9.40;;;5.20;;
23282;SDS011;11810;51.178;3.878;2023-07-24T04:11:57;7.50;;;5.15;;
23282;SDS011;11810;51.178;3.878;2023-07-24T04:14:23;9.65;;;5.07;;
23282;SDS011;11810;51.178;3.878;2023-07-24T04:16:49;7.68;;;5.50;;
23282;SDS011;11810;51.178;3.878;2023-07-24T04:19:15;8.52;;;5.40;;
23282;SDS011;11810;51.178;3.878;2023-07-24T04:21:41;9.38;;;5.00;;
23282;SDS011;11810;51.178;3.878;2023-07-24T04:24:06;8.80;;;4.80;;
23282;SDS011;11810;51.178;3.878;2023-07-24T04:26:33;6.88;;;5.00;;
23282;SDS011;11810;51.178;3.878;2023-07-24T04:28:59;9.18;;;5.00;;
23282;SDS011;11810;51.178;3.878;2023-07-24T04:31:25;6.78;;;4.57;;
23282;SDS011;11810;51.178;3.878;2023-07-24T04:33:51;10.43;;;5.43;;
23282;SDS011;11810;51.178;3.878;2023-07-24T04:36:17;8.43;;;4.88;;
23282;SDS011;11810;51.178;3.878;2023-07-24T04:38:43;8.40;;;4.72;;
23282;SDS011;11810;51.178;3.878;2023-07-24T04:41:11;8.18;;;5.55;;
23282;SDS011;11810;51.178;3.878;2023-07-24T04:43:37;9.30;;;5.40;;
23282;SDS011;11810;51.178;3.878;2023-07-24T04:46:03;10.18;;;5.25;;
23282;SDS011;11810;51.178;3.878;2023-07-24T04:48:29;6.82;;;5.00;;
23282;SDS011;11810;51.178;3.878;2023-07-24T04:50:55;7.78;;;5.07;;
23282;SDS011;11810;51.178;3.878;2023-07-24T04:53:21;8.98;;;5.80;;
23282;SDS011;11810;51.178;3.878;2023-07-24T04:55:48;7.82;;;5.03;;
23282;SDS011;11810;51.178;3.878;2023-07-24T04:58:14;9.32;;;5.80;;
23282;SDS011;11810;51.178;3.878;2023-07-24T05:00:40;9.93;;;5.70;;
23282;SDS011;11810;51.178;3.878;2023-07-24T05:03:06;12.73;;;6.90;;
23282;SDS011;11810;51.178;3.878;2023-07-24T05:05:36;13.65;;;7.18;;
23282;SDS011;11810;51.178;3.878;2023-07-24T05:08:02;12.23;;;7.40;;
23282;SDS011;11810;51.178;3.878;2023-07-24T05:10:28;10.90;;;7.22;;
23282;SDS011;11810;51.178;3.878;2023-07-24T05:12:55;12.38;;;7.40;;
23282;SDS011;11810;51.178;3.878;2023-07-24T05:15:22;13.02;;;8.02;;
23282;SDS011;11810;51.178;3.878;2023-07-24T05:17:47;17.67;;;8.77;;
23282;SDS011;11810;51.178;3.878;2023-07-24T05:20:13;13.48;;;8.48;;
23282;SDS011;11810;51.178;3.878;2023-07-24T05:22:39;13.45;;;7.60;;
23282;SDS011;11810;51.178;3.878;2023-07-24T05:25:05;13.55;;;7.57;;
23282;SDS011;11810;51.178;3.878;2023-07-24T05:27:32;12.70;;;7.60;;
23282;SDS011;11810;51.178;3.878;2023-07-24T05:29:58;12.10;;;7.63;;
23282;SDS011;11810;51.178;3.878;2023-07-24T05:32:23;12.23;;;7.65;;
23282;SDS011;11810;51.178;3.878;2023-07-24T05:34:49;10.52;;;7.47;;
23282;SDS011;11810;51.178;3.878;2023-07-24T05:37:15;12.48;;;7.82;;
23282;SDS011;11810;51.178;3.878;2023-07-24T05:39:41;12.73;;;7.45;;
23282;SDS011;11810;51.178;3.878;2023-07-24T05:42:07;12.75;;;7.18;;
23282;SDS011;11810;51.178;3.878;2023-07-24T05:44:33;11.27;;;6.75;;
23282;SDS011;11810;51.178;3.878;2023-07-24T05:47:02;10.30;;;7.43;;
23282;SDS011;11810;51.178;3.878;2023-07-24T05:49:28;8.90;;;6.22;;
23282;SDS011;11810;51.178;3.878;2023-07-24T05:51:54;10.98;;;6.55;;
23282;SDS011;11810;51.178;3.878;2023-07-24T05:54:22;14.50;;;7.63;;
23282;SDS011;11810;51.178;3.878;2023-07-24T05:56:48;12.35;;;6.95;;
23282;SDS011;11810;51.178;3.878;2023-07-24T05:59:13;12.57;;;7.43;;
23282;SDS011;11810;51.178;3.878;2023-07-24T06:01:39;11.40;;;7.28;;
23282;SDS011;11810;51.178;3.878;2023-07-24T06:04:05;11.80;;;7.10;;
23282;SDS011;11810;51.178;3.878;2023-07-24T06:06:32;13.38;;;7.60;;
23282;SDS011;11810;51.178;3.878;2023-07-24T06:08:58;10.93;;;7.70;;
23282;SDS011;11810;51.178;3.878;2023-07-24T06:11:24;13.65;;;8.55;;
23282;SDS011;11810;51.178;3.878;2023-07-24T06:13:52;14.98;;;7.60;;
23282;SDS011;11810;51.178;3.878;2023-07-24T06:16:18;12.65;;;8.00;;
23282;SDS011;11810;51.178;3.878;2023-07-24T06:18:44;11.32;;;7.65;;
23282;SDS011;11810;51.178;3.878;2023-07-24T06:21:10;14.10;;;8.13;;
23282;SDS011;11810;51.178;3.878;2023-07-24T06:23:36;14.60;;;8.27;;
23282;SDS011;11810;51.178;3.878;2023-07-24T06:26:02;11.57;;;7.15;;
23282;SDS011;11810;51.178;3.878;2023-07-24T06:28:27;10.27;;;7.53;;
23282;SDS011;11810;51.178;3.878;2023-07-24T06:30:54;18.33;;;8.20;;
23282;SDS011;11810;51.178;3.878;2023-07-24T06:33:20;16.40;;;7.75;;
23282;SDS011;11810;51.178;3.878;2023-07-24T06:35:48;11.80;;;7.95;;
23282;SDS011;11810;51.178;3.878;2023-07-24T06:38:15;10.10;;;7.05;;
23282;SDS011;11810;51.178;3.878;2023-07-24T06:40:41;11.45;;;7.72;;
23282;SDS011;11810;51.178;3.878;2023-07-24T06:43:07;15.52;;;8.48;;
23282;SDS011;11810;51.178;3.878;2023-07-24T06:45:33;11.13;;;7.47;;
23282;SDS011;11810;51.178;3.878;2023-07-24T06:47:59;10.68;;;7.75;;
23282;SDS011;11810;51.178;3.878;2023-07-24T06:50:25;12.57;;;7.88;;
23282;SDS011;11810;51.178;3.878;2023-07-24T06:52:51;13.27;;;8.07;;
23282;SDS011;11810;51.178;3.878;2023-07-24T06:55:19;10.52;;;7.53;;
23282;SDS011;11810;51.178;3.878;2023-07-24T06:57:45;11.50;;;7.88;;
23282;SDS011;11810;51.178;3.878;2023-07-24T07:00:11;9.13;;;6.63;;
23282;SDS011;11810;51.178;3.878;2023-07-24T07:02:37;11.90;;;7.60;;
23282;SDS011;11810;51.178;3.878;2023-07-24T07:05:04;10.98;;;7.05;;
23282;SDS011;11810;51.178;3.878;2023-07-24T07:07:30;9.85;;;7.35;;
23282;SDS011;11810;51.178;3.878;2023-07-24T07:09:56;11.50;;;7.45;;
23282;SDS011;11810;51.178;3.878;2023-07-24T07:12:22;11.25;;;6.97;;
23282;SDS011;11810;51.178;3.878;2023-07-24T07:14:48;10.40;;;6.97;;
23282;SDS011;11810;51.178;3.878;2023-07-24T07:17:14;12.70;;;6.65;;
23282;SDS011;11810;51.178;3.878;2023-07-24T07:19:40;10.63;;;7.22;;
23282;SDS011;11810;51.178;3.878;2023-07-24T07:22:06;11.80;;;7.22;;
23282;SDS011;11810;51.178;3.878;2023-07-24T07:24:32;11.40;;;7.00;;
23282;SDS011;11810;51.178;3.878;2023-07-24T07:26:58;13.98;;;7.65;;
23282;SDS011;11810;51.178;3.878;2023-07-24T07:29:24;15.95;;;7.70;;
23282;SDS011;11810;51.178;3.878;2023-07-24T07:31:50;11.43;;;7.90;;
23282;SDS011;11810;51.178;3.878;2023-07-24T07:34:16;10.93;;;7.35;;
23282;SDS011;11810;51.178;3.878;2023-07-24T07:36:42;9.85;;;7.95;;
23282;SDS011;11810;51.178;3.878;2023-07-24T07:39:08;10.55;;;7.72;;
23282;SDS011;11810;51.178;3.878;2023-07-24T07:41:34;12.15;;;7.55;;
23282;SDS011;11810;51.178;3.878;2023-07-24T07:44:00;12.63;;;8.95;;
23282;SDS011;11810;51.178;3.878;2023-07-24T07:46:26;12.48;;;8.73;;
23282;SDS011;11810;51.178;3.878;2023-07-24T07:48:52;9.77;;;7.53;;
23282;SDS011;11810;51.178;3.878;2023-07-24T07:51:18;10.10;;;7.60;;
23282;SDS011;11810;51.178;3.878;2023-07-24T07:53:44;11.63;;;6.82;;
23282;SDS011;11810;51.178;3.878;2023-07-24T07:56:10;10.82;;;6.53;;
23282;SDS011;11810;51.178;3.878;2023-07-24T07:58:36;7.93;;;6.78;;
23282;SDS011;11810;51.178;3.878;2023-07-24T08:01:05;7.18;;;5.78;;
23282;SDS011;11810;51.178;3.878;2023-07-24T08:03:32;9.80;;;6.57;;
23282;SDS011;11810;51.178;3.878;2023-07-24T08:05:58;11.80;;;6.90;;
23282;SDS011;11810;51.178;3.878;2023-07-24T08:08:24;11.52;;;6.28;;
23282;SDS011;11810;51.178;3.878;2023-07-24T08:10:50;9.35;;;5.97;;
23282;SDS011;11810;51.178;3.878;2023-07-24T08:13:16;6.90;;;6.00;;
23282;SDS011;11810;51.178;3.878;2023-07-24T08:15:42;9.45;;;5.50;;
23282;SDS011;11810;51.178;3.878;2023-07-24T08:18:08;9.50;;;5.82;;
23282;SDS011;11810;51.178;3.878;2023-07-24T08:20:37;13.23;;;6.65;;
23282;SDS011;11810;51.178;3.878;2023-07-24T08:23:05;8.80;;;6.97;;
23282;SDS011;11810;51.178;3.878;2023-07-24T08:25:31;10.55;;;7.35;;
23282;SDS011;11810;51.178;3.878;2023-07-24T08:27:57;8.35;;;7.13;;
23282;SDS011;11810;51.178;3.878;2023-07-24T08:30:23;10.75;;;6.55;;
23282;SDS011;11810;51.178;3.878;2023-07-24T08:32:49;13.80;;;7.03;;
23282;SDS011;11810;51.178;3.878;2023-07-24T08:35:16;8.90;;;7.07;;
23282;SDS011;11810;51.178;3.878;2023-07-24T08:37:42;8.13;;;7.00;;
23282;SDS011;11810;51.178;3.878;2023-07-24T08:40:09;9.93;;;6.70;;
23282;SDS011;11810;51.178;3.878;2023-07-24T08:42:38;8.10;;;6.28;;
23282;SDS011;11810;51.178;3.878;2023-07-24T08:45:08;9.05;;;5.75;;
23282;SDS011;11810;51.178;3.878;2023-07-24T08:47:39;6.90;;;5.68;;
23282;SDS011;11810;51.178;3.878;2023-07-24T08:50:08;6.45;;;5.53;;
23282;SDS011;11810;51.178;3.878;2023-07-24T08:52:37;9.60;;;6.10;;
23282;SDS011;11810;51.178;3.878;2023-07-24T08:55:04;7.45;;;5.93;;
23282;SDS011;11810;51.178;3.878;2023-07-24T08:57:31;8.48;;;5.50;;
23282;SDS011;11810;51.178;3.878;2023-07-24T08:59:57;8.40;;;5.97;;
23282;SDS011;11810;51.178;3.878;2023-07-24T09:02:23;10.32;;;5.00;;
23282;SDS011;11810;51.178;3.878;2023-07-24T09:04:49;8.73;;;5.40;;
23282;SDS011;11810;51.178;3.878;2023-07-24T09:07:16;7.18;;;5.05;;
23282;SDS011;11810;51.178;3.878;2023-07-24T09:09:44;10.88;;;5.15;;
23282;SDS011;11810;51.178;3.878;2023-07-24T09:12:15;8.15;;;4.40;;
23282;SDS011;11810;51.178;3.878;2023-07-24T09:14:41;10.32;;;5.10;;
23282;SDS011;11810;51.178;3.878;2023-07-24T09:17:10;7.20;;;5.20;;
23282;SDS011;11810;51.178;3.878;2023-07-24T09:19:37;6.75;;;5.20;;
23282;SDS011;11810;51.178;3.878;2023-07-24T09:22:13;8.55;;;5.15;;
23282;SDS011;11810;51.178;3.878;2023-07-24T09:24:56;21.67;;;15.88;;
23282;SDS011;11810;51.178;3.878;2023-07-24T09:27:27;28.55;;;22.02;;
23282;SDS011;11810;51.178;3.878;2023-07-24T09:29:54;46.17;;;38.40;;
23282;SDS011;11810;51.178;3.878;2023-07-24T09:32:21;51.65;;;38.92;;
23282;SDS011;11810;51.178;3.878;2023-07-24T09:34:51;51.22;;;38.10;;
23282;SDS011;11810;51.178;3.878;2023-07-24T09:37:27;24.17;;;16.75;;
23282;SDS011;11810;51.178;3.878;2023-07-24T09:39:58;11.65;;;7.68;;
23282;SDS011;11810;51.178;3.878;2023-07-24T09:42:31;41.03;;;30.08;;
23282;SDS011;11810;51.178;3.878;2023-07-24T09:44:58;22.85;;;16.33;;
23282;SDS011;11810;51.178;3.878;2023-07-24T09:47:25;29.85;;;22.95;;
23282;SDS011;11810;51.178;3.878;2023-07-24T09:49:51;13.88;;;9.35;;
23282;SDS011;11810;51.178;3.878;2023-07-24T09:52:18;18.92;;;9.85;;
23282;SDS011;11810;51.178;3.878;2023-07-24T09:57:17;23.70;;;11.27;;
23282;SDS011;11810;51.178;3.878;2023-07-24T09:59:44;18.92;;;10.77;;
23282;SDS011;11810;51.178;3.878;2023-07-24T10:02:10;13.50;;;7.40;;
23282;SDS011;11810;51.178;3.878;2023-07-24T10:04:38;13.80;;;7.53;;
23282;SDS011;11810;51.178;3.878;2023-07-24T10:07:06;15.65;;;11.00;;
23282;SDS011;11810;51.178;3.878;2023-07-24T10:09:32;22.33;;;16.05;;
23282;SDS011;11810;51.178;3.878;2023-07-24T10:11:58;22.98;;;16.20;;
23282;SDS011;11810;51.178;3.878;2023-07-24T10:14:26;33.08;;;23.30;;
23282;SDS011;11810;51.178;3.878;2023-07-24T10:16:55;17.08;;;11.45;;
23282;SDS011;11810;51.178;3.878;2023-07-24T10:19:22;21.95;;;16.33;;
23282;SDS011;11810;51.178;3.878;2023-07-24T10:21:48;13.57;;;9.52;;
23282;SDS011;11810;51.178;3.878;2023-07-24T10:24:15;12.60;;;6.10;;
23282;SDS011;11810;51.178;3.878;2023-07-24T10:26:41;11.00;;;7.22;;
23282;SDS011;11810;51.178;3.878;2023-07-24T10:29:08;16.48;;;7.82;;
23282;SDS011;11810;51.178;3.878;2023-07-24T10:31:35;13.75;;;6.25;;
23282;SDS011;11810;51.178;3.878;2023-07-24T10:34:04;12.48;;;6.53;;
23282;SDS011;11810;51.178;3.878;2023-07-24T10:36:34;8.93;;;5.95;;
23282;SDS011;11810;51.178;3.878;2023-07-24T10:39:02;12.30;;;7.55;;
23282;SDS011;11810;51.178;3.878;2023-07-24T10:41:35;7.68;;;5.03;;
23282;SDS011;11810;51.178;3.878;2023-07-24T10:44:01;11.37;;;5.53;;
23282;SDS011;11810;51.178;3.878;2023-07-24T10:46:40;13.35;;;9.52;;
23282;SDS011;11810;51.178;3.878;2023-07-24T10:49:07;12.93;;;6.85;;
23282;SDS011;11810;51.178;3.878;2023-07-24T10:51:34;10.02;;;5.78;;
23282;SDS011;11810;51.178;3.878;2023-07-24T10:54:03;10.77;;;5.72;;
23282;SDS011;11810;51.178;3.878;2023-07-24T10:56:30;14.07;;;4.72;;
23282;SDS011;11810;51.178;3.878;2023-07-24T10:58:56;10.98;;;6.30;;
23282;SDS011;11810;51.178;3.878;2023-07-24T11:01:27;9.77;;;4.97;;
23282;SDS011;11810;51.178;3.878;2023-07-24T11:03:53;11.95;;;5.10;;
23282;SDS011;11810;51.178;3.878;2023-07-24T11:06:20;10.07;;;4.70;;
23282;SDS011;11810;51.178;3.878;2023-07-24T11:08:53;8.45;;;4.78;;
23282;SDS011;11810;51.178;3.878;2023-07-24T11:11:31;8.23;;;4.82;;
23282;SDS011;11810;51.178;3.878;2023-07-24T11:13:58;10.05;;;4.82;;
23282;SDS011;11810;51.178;3.878;2023-07-24T11:16:25;9.02;;;5.10;;
23282;SDS011;11810;51.178;3.878;2023-07-24T11:18:51;8.85;;;5.47;;
23282;SDS011;11810;51.178;3.878;2023-07-24T11:21:17;11.10;;;5.40;;
23282;SDS011;11810;51.178;3.878;2023-07-24T11:23:50;9.82;;;5.40;;
23282;SDS011;11810;51.178;3.878;2023-07-24T11:26:21;10.95;;;5.00;;
23282;SDS011;11810;51.178;3.878;2023-07-24T11:28:49;8.05;;;4.88;;
23282;SDS011;11810;51.178;3.878;2023-07-24T11:31:16;7.85;;;5.47;;
23282;SDS011;11810;51.178;3.878;2023-07-24T11:33:44;9.48;;;5.47;;
23282;SDS011;11810;51.178;3.878;2023-07-24T11:36:12;8.95;;;5.20;;
23282;SDS011;11810;51.178;3.878;2023-07-24T11:38:38;7.57;;;5.28;;
23282;SDS011;11810;51.178;3.878;2023-07-24T11:41:04;8.20;;;5.10;;
23282;SDS011;11810;51.178;3.878;2023-07-24T11:43:31;8.95;;;6.38;;
23282;SDS011;11810;51.178;3.878;2023-07-24T11:45:57;11.88;;;5.57;;
23282;SDS011;11810;51.178;3.878;2023-07-24T11:48:23;8.07;;;5.88;;
23282;SDS011;11810;51.178;3.878;2023-07-24T11:50:50;9.10;;;6.28;;
23282;SDS011;11810;51.178;3.878;2023-07-24T11:53:19;10.55;;;5.72;;
23282;SDS011;11810;51.178;3.878;2023-07-24T11:55:49;9.57;;;5.45;;
23282;SDS011;11810;51.178;3.878;2023-07-24T11:58:17;7.80;;;6.13;;
23282;SDS011;11810;51.178;3.878;2023-07-24T12:00:44;13.02;;;6.65;;
23282;SDS011;11810;51.178;3.878;2023-07-24T12:03:12;31.38;;;13.52;;
23282;SDS011;11810;51.178;3.878;2023-07-24T12:05:38;12.23;;;6.88;;
23282;SDS011;11810;51.178;3.878;2023-07-24T12:08:05;11.02;;;7.07;;
23282;SDS011;11810;51.178;3.878;2023-07-24T12:10:34;19.77;;;15.40;;
23282;SDS011;11810;51.178;3.878;2023-07-24T12:13:02;14.65;;;8.18;;
23282;SDS011;11810;51.178;3.878;2023-07-24T12:15:28;41.80;;;30.67;;
23282;SDS011;11810;51.178;3.878;2023-07-24T12:17:54;45.63;;;26.48;;
23282;SDS011;11810;51.178;3.878;2023-07-24T12:20:22;33.95;;;22.05;;
23282;SDS011;11810;51.178;3.878;2023-07-24T12:22:48;18.70;;;13.55;;
23282;SDS011;11810;51.178;3.878;2023-07-24T12:25:14;17.55;;;10.32;;
23282;SDS011;11810;51.178;3.878;2023-07-24T12:27:41;19.20;;;11.70;;
23282;SDS011;11810;51.178;3.878;2023-07-24T12:30:07;16.45;;;11.15;;
23282;SDS011;11810;51.178;3.878;2023-07-24T12:32:34;21.38;;;11.65;;
23282;SDS011;11810;51.178;3.878;2023-07-24T12:35:00;16.17;;;10.85;;
23282;SDS011;11810;51.178;3.878;2023-07-24T12:37:26;13.27;;;10.20;;
23282;SDS011;11810;51.178;3.878;2023-07-24T12:39:53;14.40;;;11.98;;
23282;SDS011;11810;51.178;3.878;2023-07-24T12:42:19;13.90;;;10.38;;
23282;SDS011;11810;51.178;3.878;2023-07-24T12:44:45;12.27;;;10.05;;
23282;SDS011;11810;51.178;3.878;2023-07-24T12:47:11;10.57;;;9.40;;
23282;SDS011;11810;51.178;3.878;2023-07-24T12:49:38;13.63;;;11.90;;
23282;SDS011;11810;51.178;3.878;2023-07-24T12:52:04;35.38;;;27.05;;
23282;SDS011;11810;51.178;3.878;2023-07-24T12:54:31;59.70;;;46.00;;
23282;SDS011;11810;51.178;3.878;2023-07-24T12:56:57;74.13;;;53.50;;
23282;SDS011;11810;51.178;3.878;2023-07-24T12:59:23;0.98;;;0.98;;
23282;SDS011;11810;51.178;3.878;2023-07-24T13:01:49;4.00;;;1.80;;
23282;SDS011;11810;51.178;3.878;2023-07-24T13:04:15;1.13;;;1.08;;
23282;SDS011;11810;51.178;3.878;2023-07-24T13:06:41;1.42;;;1.38;;
23282;SDS011;11810;51.178;3.878;2023-07-24T13:09:07;1.92;;;1.83;;
23282;SDS011;11810;51.178;3.878;2023-07-24T13:11:32;1.50;;;1.45;;
23282;SDS011;11810;51.178;3.878;2023-07-24T13:13:58;5.43;;;3.53;;
23282;SDS011;11810;51.178;3.878;2023-07-24T13:16:24;1.13;;;1.10;;
23282;SDS011;11810;51.178;3.878;2023-07-24T13:18:51;1.05;;;1.00;;
23282;SDS011;11810;51.178;3.878;2023-07-24T13:21:17;0.20;;;0.20;;
23282;SDS011;11810;51.178;3.878;2023-07-24T13:23:43;0.10;;;0.10;;
23282;SDS011;11810;51.178;3.878;2023-07-24T13:26:09;0.05;;;0.05;;
23282;SDS011;11810;51.178;3.878;2023-07-24T13:28:44;0.10;;;0.10;;
23282;SDS011;11810;51.178;3.878;2023-07-24T13:31:14;0.75;;;0.75;;
23282;SDS011;11810;51.178;3.878;2023-07-24T13:33:41;3.42;;;2.67;;
23282;SDS011;11810;51.178;3.878;2023-07-24T13:36:08;6.70;;;4.50;;
23282;SDS011;11810;51.178;3.878;2023-07-24T13:38:34;5.25;;;2.92;;
23282;SDS011;11810;51.178;3.878;2023-07-24T13:41:00;5.45;;;3.42;;
23282;SDS011;11810;51.178;3.878;2023-07-24T13:43:27;3.03;;;2.22;;
23282;SDS011;11810;51.178;3.878;2023-07-24T13:45:53;0.13;;;0.13;;
23282;SDS011;11810;51.178;3.878;2023-07-24T13:48:20;0.20;;;0.20;;
23282;SDS011;11810;51.178;3.878;2023-07-24T13:50:46;0.08;;;0.08;;
23282;SDS011;11810;51.178;3.878;2023-07-24T13:53:12;1.45;;;0.32;;
23282;SDS011;11810;51.178;3.878;2023-07-24T13:55:38;0.40;;;0.40;;
23282;SDS011;11810;51.178;3.878;2023-07-24T13:58:03;0.00;;;0.00;;
23282;SDS011;11810;51.178;3.878;2023-07-24T14:00:29;0.00;;;0.00;;
23282;SDS011;11810;51.178;3.878;2023-07-24T14:02:55;0.52;;;0.52;;
23282;SDS011;11810;51.178;3.878;2023-07-24T14:05:21;0.22;;;0.20;;
23282;SDS011;11810;51.178;3.878;2023-07-24T14:07:47;0.00;;;0.00;;
23282;SDS011;11810;51.178;3.878;2023-07-24T14:10:13;0.90;;;0.47;;
23282;SDS011;11810;51.178;3.878;2023-07-24T14:12:39;0.40;;;0.40;;
23282;SDS011;11810;51.178;3.878;2023-07-24T14:15:05;0.30;;;0.30;;
23282;SDS011;11810;51.178;3.878;2023-07-24T14:17:31;1.10;;;0.57;;
23282;SDS011;11810;51.178;3.878;2023-07-24T14:19:57;23.10;;;18.13;;
23282;SDS011;11810;51.178;3.878;2023-07-24T14:22:23;26.83;;;20.08;;
23282;SDS011;11810;51.178;3.878;2023-07-24T14:24:49;22.30;;;15.20;;
23282;SDS011;11810;51.178;3.878;2023-07-24T14:27:15;25.95;;;19.90;;
23282;SDS011;11810;51.178;3.878;2023-07-24T14:29:41;47.70;;;38.17;;
23282;SDS011;11810;51.178;3.878;2023-07-24T14:32:07;46.85;;;37.28;;
23282;SDS011;11810;51.178;3.878;2023-07-24T14:34:33;1.48;;;0.38;;
23282;SDS011;11810;51.178;3.878;2023-07-24T14:36:59;0.32;;;0.32;;
23282;SDS011;11810;51.178;3.878;2023-07-24T14:39:25;0.03;;;0.03;;
23282;SDS011;11810;51.178;3.878;2023-07-24T14:41:51;1.00;;;1.00;;
23282;SDS011;11810;51.178;3.878;2023-07-24T14:44:17;0.20;;;0.20;;